Max, North Dakota
Current Conditions -  °F | °C
As of 12:07 PM on Thursday 18 Dec 2014 (Local Time) from KMOT Reporting Station
Haze Haze  
Wind Chill: 12°   Ceiling: 900
Heat Index: 22°   Visibility: 5mi
Dew Point: 18°   Wind: 9mph
Humidity: 85%   Direction: 180°S
Pressure: 30.03"   Gusts: NA
Location:  47.82°N, 101.3°W
Report Text: KMOT 181807Z 18008KT 5SM BR BKN009 OVC019 M06/M08 A3003 RMK AO2 T10561078
Loading
Personal Weather Stations






























Interactive Weather Map New forecast layout! Learn more

10-Day Weather Forecast

Advertisements
Track Severe Weather on mobile